Date,TemperatureHighF,TemperatureAvgF,TemperatureLowF,DewpointHighF,DewpointAvgF,DewpointLowF,HumidityHigh,HumidityAvg,HumidityLow,PressureMaxIn,PressureMinIn,WindSpeedMaxMPH,WindSpeedAvgMPH,GustSpeedMaxMPH,PrecipitationSumIn
2013-9-1,99.2,78.9,69.5,75.8,71.8,67.7,100,83,44,29.86,29.75,15,1,15,0.39
2013-9-2,92.0,80.2,70.6,79.0,71.8,64.9,100,78,49,29.92,29.83,9,1,9,0.31
2013-9-3,91.8,77.2,64.3,70.9,66.1,62.1,100,72,45,30.01,29.92,11,1,11,0.31
2013-9-4,91.6,75.9,61.2,67.3,63.2,59.5,100,68,45,30.13,29.98,9,1,9,0.31
2013-9-5,92.2,74.9,59.9,67.8,63.3,59.9,100,71,45,30.16,30.04,6,1,7,0.31
2013-9-6,92.9,75.2,59.9,70.2,64.1,59.8,100,72,44,30.13,29.98,9,1,9,0.31
2013-9-7,97.7,79.6,66.4,72.2,67.1,62.9,98,69,42,30.07,29.92,9,1,9,0.31
2013-9-8,97.2,78.8,65.5,72.7,68.2,64.8,100,74,44,30.01,29.89,10,1,10,0.00
2013-9-9,97.4,80.9,66.8,71.8,68.1,63.7,100,69,44,30.04,29.92,7,1,7,0.00
2013-9-10,94.7,79.1,64.3,71.0,66.9,63.0,100,70,45,30.16,30.01,9,1,9,0.00
2013-9-11,95.8,79.7,69.1,71.0,67.9,64.8,97,69,45,30.16,30.07,12,2,12,22.22
2013-9-12,92.0,77.1,67.7,74.5,70.2,65.9,100,82,49,30.13,30.01,11,1,11,0.00
2013-9-13,87.3,75.4,61.4,72.4,61.8,52.2,100,66,46,30.13,29.98,10,2,10,0.08
2013-9-14,81.9,67.0,53.1,59.8,55.1,51.2,100,69,47,30.16,30.04,13,2,13,0.00
2013-9-15,89.1,70.6,54.0,65.9,57.2,49.0,89,65,46,30.16,30.07,5,1,5,0.00
2013-9-16,90.5,75.8,63.2,69.4,63.4,59.2,91,67,48,30.25,30.13,7,2,9,0.00
2013-9-17,90.7,76.4,63.7,67.7,64.5,61.2,100,69,46,30.25,30.07,10,2,10,0.00
2013-9-18,92.5,78.7,70.0,70.0,65.5,62.0,82,65,48,30.16,30.04,8,2,8,0.00
2013-9-19,89.5,76.6,71.3,75.4,68.8,63.6,100,78,56,30.13,30.01,23,2,23,0.39
2013-9-20,73.1,69.8,62.1,72.9,67.1,53.5,100,92,61,30.07,29.95,8,1,8,1.06
2013-9-21,83.0,65.7,52.0,62.4,53.5,47.0,100,69,42,30.10,30.01,11,2,11,0.00
2013-9-22,80.3,61.8,46.1,60.1,52.7,46.1,100,76,45,30.13,30.01,10,1,10,0.00
2013-9-23,80.5,64.9,49.7,63.2,55.3,49.5,100,75,48,30.10,29.95,12,2,12,0.00
2013-9-24,84.1,69.7,56.0,65.2,58.4,54.9,100,71,44,30.04,29.95,15,3,15,0.00
2013-9-25,84.6,67.8,54.2,64.3,59.4,54.2,100,78,47,30.04,29.95,13,2,13,0.00
2013-9-26,86.6,70.1,55.4,65.1,60.2,55.4,100,75,47,30.16,30.01,9,2,9,0.00
2013-9-27,87.3,72.3,58.0,67.7,61.7,58.0,100,73,47,30.22,30.10,13,2,13,0.00
2013-9-28,86.6,73.1,66.8,71.8,66.0,61.1,100,80,53,30.22,30.13,19,2,21,0.75
2013-9-29,78.5,70.6,65.7,70.0,66.1,63.6,100,87,61,30.22,30.13,7,2,8,0.00
2013-9-30,82.1,73.0,66.4,68.7,66.2,63.5,100,81,55,30.16,30.07,8,2,8,0.00